Time,TemperatureF,DewpointF,PressureIn,WindDirection,WindDirectionDegrees,WindSpeedMPH,WindSpeedGustMPH,Humidity,HourlyPrecipIn,Conditions,Clouds,dailyrainin,SoftwareType,DateUTC
2013-04-15 00:01:00,44.1,41.0,29.83,WSW,254,2.0,10.0,89,0.00,,,0.00,meteohub,2013-04-15 07:01:00,
2013-04-15 00:41:00,43.2,40.5,29.84,WNW,290,7.0,10.0,90,0.00,,,0.00,meteohub,2013-04-15 07:41:00,
2013-04-15 00:42:00,43.2,40.6,29.84,NW,304,8.0,10.0,91,0.00,,,0.00,meteohub,2013-04-15 07:42:00,
2013-04-15 00:47:00,43.0,40.5,29.84,SW,236,4.0,10.0,91,0.00,,,0.00,meteohub,2013-04-15 07:47:00,
2013-04-15 00:48:00,43.0,40.5,29.84,SW,218,4.0,10.0,91,0.00,,,0.00,meteohub,2013-04-15 07:48:00,
2013-04-15 00:49:00,43.0,40.5,29.84,SW,229,3.0,10.0,91,0.00,,,0.00,meteohub,2013-04-15 07:49:00,
2013-04-15 00:53:00,43.0,40.5,29.84,SW,230,4.0,10.0,91,0.00,,,0.00,meteohub,2013-04-15 07:53:00,
2013-04-15 00:58:00,42.8,40.3,29.84,SSW,206,2.0,10.0,91,0.00,,,0.00,meteohub,2013-04-15 07:58:00,
2013-04-15 01:03:00,42.6,40.1,29.84,WSW,250,3.0,10.0,91,0.00,,,0.00,meteohub,2013-04-15 08:03:00,
2013-04-15 01:08:00,42.6,40.1,29.84,West,279,4.0,6.0,91,0.00,,,0.00,meteohub,2013-04-15 08:08:00,
2013-04-15 01:14:00,42.4,39.9,29.84,West,266,2.0,7.0,91,0.00,,,0.00,meteohub,2013-04-15 08:14:00,
2013-04-15 01:19:00,42.4,40.3,29.84,WNW,291,2.0,7.0,92,0.00,,,0.00,meteohub,2013-04-15 08:19:00,
2013-04-15 01:24:00,42.3,40.1,29.84,West,264,5.0,7.0,92,0.00,,,0.00,meteohub,2013-04-15 08:24:00,
2013-04-15 01:29:00,42.3,40.1,29.84,WSW,250,4.0,8.0,92,0.00,,,0.00,meteohub,2013-04-15 08:29:00,
2013-04-15 01:34:00,42.1,39.9,29.84,SW,234,5.0,8.0,92,0.00,,,0.00,meteohub,2013-04-15 08:34:00,
2013-04-15 01:35:00,42.1,39.9,29.84,West,275,4.0,8.0,92,0.00,,,0.00,meteohub,2013-04-15 08:35:00,
2013-04-15 01:40:00,42.1,39.9,29.84,West,278,5.0,8.0,92,0.00,,,0.00,meteohub,2013-04-15 08:40:00,
2013-04-15 01:45:00,41.7,39.6,29.83,West,259,3.0,8.0,92,0.00,,,0.00,meteohub,2013-04-15 08:45:00,
2013-04-15 01:50:00,41.7,39.9,29.83,WSW,254,1.0,8.0,93,0.00,,,0.00,meteohub,2013-04-15 08:50:00,
2013-04-15 01:55:00,41.5,39.7,29.83,WSW,248,4.0,8.0,93,0.00,,,0.00,meteohub,2013-04-15 08:55:00,
2013-04-15 02:00:00,41.4,39.6,29.83,WNW,288,7.0,8.0,93,0.00,,,0.00,meteohub,2013-04-15 09:00:00,
2013-04-15 02:05:00,41.4,39.6,29.83,WSW,251,5.0,9.0,93,0.00,,,0.00,meteohub,2013-04-15 09:05:00,
2013-04-15 02:10:00,41.4,39.6,29.84,NW,312,2.0,9.0,93,0.00,,,0.00,meteohub,2013-04-15 09:10:00,
2013-04-15 02:15:00,41.2,39.4,29.84,WNW,289,1.0,7.0,93,0.00,,,0.00,meteohub,2013-04-15 09:15:00,
2013-04-15 02:20:00,41.2,39.4,29.84,West,275,3.0,7.0,93,0.00,,,0.00,meteohub,2013-04-15 09:20:00,
2013-04-15 02:25:00,41.2,39.4,29.83,SW,223,4.0,10.0,93,0.00,,,0.00,meteohub,2013-04-15 09:25:00,
2013-04-15 02:30:00,41.2,39.4,29.84,WSW,246,4.0,10.0,93,0.00,,,0.00,meteohub,2013-04-15 09:30:00,
2013-04-15 02:35:00,41.0,39.4,29.84,SW,217,4.0,10.0,94,0.00,,,0.00,meteohub,2013-04-15 09:35:00,
2013-04-15 02:40:00,41.0,39.4,29.84,WSW,257,2.0,9.0,94,0.00,,,0.00,meteohub,2013-04-15 09:40:00,
2013-04-15 02:45:00,40.8,39.2,29.84,West,279,0.0,9.0,94,0.00,,,0.00,meteohub,2013-04-15 09:45:00,
2013-04-15 02:50:00,40.8,39.2,29.83,SW,230,0.0,7.0,94,0.00,,,0.00,meteohub,2013-04-15 09:50:00,
2013-04-15 02:55:00,40.6,39.0,29.83,NW,305,2.0,7.0,94,0.00,,,0.00,meteohub,2013-04-15 09:55:00,
2013-04-15 03:00:00,40.6,39.0,29.83,WSW,244,3.0,6.0,94,0.00,,,0.00,meteohub,2013-04-15 10:00:00,
2013-04-15 03:05:00,40.5,38.8,29.83,WSW,245,1.0,6.0,94,0.00,,,0.00,meteohub,2013-04-15 10:05:00,
2013-04-15 03:10:00,40.5,38.8,29.83,WSW,257,5.0,5.0,94,0.00,,,0.00,meteohub,2013-04-15 10:10:00,
2013-04-15 03:15:00,40.5,38.8,29.83,WSW,257,3.0,5.0,94,0.00,,,0.00,meteohub,2013-04-15 10:15:00,
2013-04-15 03:20:00,40.5,38.8,29.84,WSW,257,3.0,6.0,94,0.00,,,0.00,meteohub,2013-04-15 10:20:00,
2013-04-15 03:25:00,40.3,38.7,29.83,NW,304,4.0,6.0,94,0.00,,,0.00,meteohub,2013-04-15 10:25:00,
2013-04-15 03:30:00,40.3,38.7,29.83,West,280,2.0,6.0,94,0.00,,,0.00,meteohub,2013-04-15 10:30:00,
2013-04-15 03:35:00,40.1,38.5,29.84,West,280,0.0,6.0,94,0.00,,,0.00,meteohub,2013-04-15 10:35:00,
2013-04-15 03:40:00,39.9,38.3,29.83,SW,236,2.0,6.0,94,0.00,,,0.00,meteohub,2013-04-15 10:40:00,
2013-04-15 03:46:00,39.9,38.3,29.83,West,279,0.0,6.0,94,0.00,,,0.00,meteohub,2013-04-15 10:46:00,
2013-04-15 03:51:00,39.9,38.3,29.83,WNW,288,6.0,6.0,94,0.00,,,0.00,meteohub,2013-04-15 10:51:00,
2013-04-15 03:56:00,39.7,38.5,29.83,WNW,284,0.0,7.0,95,0.00,,,0.00,meteohub,2013-04-15 10:56:00,
2013-04-15 04:01:00,39.7,38.5,29.84,WNW,290,1.0,7.0,95,0.00,,,0.00,meteohub,2013-04-15 11:01:00,
2013-04-15 04:06:00,39.6,38.3,29.84,WNW,288,4.0,7.0,95,0.00,,,0.00,meteohub,2013-04-15 11:06:00,
2013-04-15 04:11:00,39.6,38.3,29.84,WSW,254,1.0,4.0,95,0.00,,,0.00,meteohub,2013-04-15 11:11:00,
2013-04-15 04:16:00,39.6,38.3,29.84,WSW,254,0.0,4.0,95,0.00,,,0.00,meteohub,2013-04-15 11:16:00,
2013-04-15 04:21:00,39.4,38.1,29.84,WSW,254,0.0,4.0,95,0.00,,,0.00,meteohub,2013-04-15 11:21:00,
2013-04-15 04:26:00,39.4,38.1,29.84,WSW,254,1.0,3.0,95,0.00,,,0.00,meteohub,2013-04-15 11:26:00,
2013-04-15 04:31:00,39.2,37.9,29.84,WSW,256,3.0,6.0,95,0.00,,,0.00,meteohub,2013-04-15 11:31:00,
2013-04-15 04:36:00,39.2,37.9,29.84,WSW,256,0.0,6.0,95,0.00,,,0.00,meteohub,2013-04-15 11:36:00,
2013-04-15 04:41:00,39.0,37.8,29.84,WSW,256,3.0,6.0,95,0.00,,,0.00,meteohub,2013-04-15 11:41:00,
2013-04-15 04:46:00,39.0,37.8,29.84,WSW,256,0.0,6.0,95,0.00,,,0.00,meteohub,2013-04-15 11:46:00,
2013-04-15 04:51:00,38.8,37.6,29.84,WSW,256,0.0,6.0,95,0.00,,,0.00,meteohub,2013-04-15 11:51:00,
2013-04-15 04:56:00,38.8,37.6,29.84,WSW,256,0.0,4.0,95,0.00,,,0.00,meteohub,2013-04-15 11:56:00,
2013-04-15 05:01:00,38.8,37.6,29.84,WSW,256,0.0,2.0,95,0.00,,,0.00,meteohub,2013-04-15 12:01:00,
2013-04-15 05:07:00,38.8,37.6,29.84,WSW,256,0.0,1.0,95,0.00,,,0.00,meteohub,2013-04-15 12:07:00,
2013-04-15 05:12:00,38.7,37.4,29.85,WSW,256,0.0,2.0,95,0.00,,,0.00,meteohub,2013-04-15 12:12:00,
2013-04-15 05:17:00,38.7,37.4,29.85,WSW,256,1.0,2.0,95,0.00,,,0.00,meteohub,2013-04-15 12:17:00,
2013-04-15 05:22:00,38.7,37.4,29.84,WSW,256,0.0,2.0,95,0.00,,,0.00,meteohub,2013-04-15 12:22:00,
2013-04-15 05:27:00,38.5,37.2,29.84,WSW,256,0.0,2.0,95,0.00,,,0.00,meteohub,2013-04-15 12:27:00,
2013-04-15 05:32:00,38.5,37.4,29.84,WSW,256,1.0,2.0,96,0.00,,,0.00,meteohub,2013-04-15 12:32:00,
2013-04-15 05:37:00,38.3,37.2,29.85,WSW,256,0.0,2.0,96,0.00,,,0.00,meteohub,2013-04-15 12:37:00,
2013-04-15 05:42:00,37.9,36.7,29.85,WSW,256,2.0,2.0,95,0.00,,,0.00,meteohub,2013-04-15 12:42:00,
2013-04-15 05:48:00,37.9,36.7,29.85,WSW,256,2.0,2.0,95,0.00,,,0.00,meteohub,2013-04-15 12:48:00,
2013-04-15 05:53:00,37.4,36.1,29.85,WSW,256,0.0,2.0,95,0.00,,,0.00,meteohub,2013-04-15 12:53:00,
2013-04-15 05:58:00,37.2,36.1,29.85,WSW,256,0.0,2.0,96,0.00,,,0.00,meteohub,2013-04-15 12:58:00,
2013-04-15 06:03:00,37.0,36.0,29.85,WSW,256,0.0,2.0,96,0.00,,,0.00,meteohub,2013-04-15 13:03:00,
2013-04-15 06:08:00,37.0,36.0,29.85,WSW,256,0.0,2.0,96,0.00,,,0.00,meteohub,2013-04-15 13:08:00,
2013-04-15 06:13:00,36.9,35.8,29.85,WSW,256,0.0,2.0,96,0.00,,,0.00,meteohub,2013-04-15 13:13:00,
2013-04-15 06:18:00,36.9,35.6,29.86,WSW,256,0.0,2.0,95,0.00,,,0.00,meteohub,2013-04-15 13:18:00,
2013-04-15 06:23:00,36.7,35.6,29.86,WSW,257,0.0,4.0,96,0.00,,,0.00,meteohub,2013-04-15 13:23:00,
2013-04-15 06:28:00,36.7,35.6,29.86,WSW,257,0.0,4.0,96,0.00,,,0.00,meteohub,2013-04-15 13:28:00,
2013-04-15 06:33:00,36.7,35.6,29.86,WSW,257,0.0,4.0,96,0.00,,,0.00,meteohub,2013-04-15 13:33:00,
2013-04-15 06:38:00,36.7,35.6,29.86,WSW,257,0.0,2.0,96,0.00,,,0.00,meteohub,2013-04-15 13:38:00,
2013-04-15 06:43:00,36.9,35.8,29.86,WSW,257,0.0,2.0,96,0.00,,,0.00,meteohub,2013-04-15 13:43:00,
2013-04-15 06:48:00,36.9,35.8,29.86,WSW,257,0.0,2.0,96,0.00,,,0.00,meteohub,2013-04-15 13:48:00,
2013-04-15 06:53:00,36.9,35.8,29.86,WSW,257,0.0,2.0,96,0.00,,,0.00,meteohub,2013-04-15 13:53:00,
2013-04-15 06:58:00,36.9,35.8,29.87,WSW,257,0.0,2.0,96,0.00,,,0.00,meteohub,2013-04-15 13:58:00,
2013-04-15 07:03:00,36.9,35.8,29.87,WSW,257,0.0,1.0,96,0.00,,,0.00,meteohub,2013-04-15 14:03:00,
2013-04-15 07:08:00,36.9,35.8,29.87,WSW,257,0.0,1.0,96,0.00,,,0.00,meteohub,2013-04-15 14:08:00,
2013-04-15 07:09:00,36.9,35.8,29.87,WSW,257,0.0,1.0,96,0.00,,,0.00,meteohub,2013-04-15 14:09:00,
2013-04-15 07:17:00,36.9,36.1,29.87,WSW,257,0.0,0.0,97,0.00,,,0.00,meteohub,2013-04-15 14:17:00,
2013-04-15 07:24:00,36.9,36.1,29.88,WSW,257,0.0,2.0,97,0.00,,,0.00,meteohub,2013-04-15 14:24:00,
2013-04-15 07:29:00,37.0,36.3,29.88,WSW,257,2.0,2.0,97,0.00,,,0.00,meteohub,2013-04-15 14:29:00,
2013-04-15 07:34:00,37.2,36.5,29.88,WSW,257,3.0,3.0,97,0.00,,,0.00,meteohub,2013-04-15 14:34:00,
2013-04-15 07:39:00,37.2,36.5,29.88,WSW,257,0.0,3.0,97,0.00,,,0.00,meteohub,2013-04-15 14:39:00,
2013-04-15 07:44:00,37.4,36.7,29.88,WSW,257,0.0,3.0,97,0.00,,,0.00,meteohub,2013-04-15 14:44:00,
2013-04-15 07:49:00,37.6,36.9,29.89,WSW,257,0.0,3.0,97,0.00,,,0.00,meteohub,2013-04-15 14:49:00,
2013-04-15 07:54:00,37.8,37.0,29.89,WSW,257,0.0,1.0,97,0.00,,,0.00,meteohub,2013-04-15 14:54:00,
2013-04-15 07:59:00,38.1,37.6,29.89,WSW,257,1.0,2.0,98,0.00,,,0.00,meteohub,2013-04-15 14:59:00,
2013-04-15 08:04:00,38.5,37.8,29.89,WSW,257,0.0,3.0,97,0.00,,,0.00,meteohub,2013-04-15 15:04:00,
2013-04-15 08:09:00,38.7,38.1,29.89,WSW,257,0.0,3.0,98,0.00,,,0.00,meteohub,2013-04-15 15:09:00,
2013-04-15 08:14:00,38.8,38.3,29.89,WSW,257,0.0,3.0,98,0.00,,,0.00,meteohub,2013-04-15 15:14:00,
2013-04-15 08:20:00,39.0,38.5,29.89,WSW,257,0.0,2.0,98,0.00,,,0.00,meteohub,2013-04-15 15:20:00,
2013-04-15 08:25:00,39.2,38.7,29.89,WSW,257,0.0,2.0,98,0.00,,,0.00,meteohub,2013-04-15 15:25:00,
2013-04-15 08:30:00,39.4,38.8,29.89,WSW,257,0.0,0.0,98,0.00,,,0.00,meteohub,2013-04-15 15:30:00,
2013-04-15 08:35:00,39.6,39.0,29.89,WSW,257,0.0,0.0,98,0.00,,,0.00,meteohub,2013-04-15 15:35:00,
2013-04-15 08:40:00,39.7,39.2,29.89,WSW,257,0.0,2.0,98,0.00,,,0.00,meteohub,2013-04-15 15:40:00,
2013-04-15 08:45:00,39.9,39.4,29.89,WSW,257,0.0,2.0,98,0.00,,,0.00,meteohub,2013-04-15 15:45:00,
2013-04-15 08:51:00,40.3,39.7,29.89,WSW,257,0.0,2.0,98,0.00,,,0.00,meteohub,2013-04-15 15:51:00,
2013-04-15 08:56:00,40.5,39.9,29.89,WSW,257,0.0,2.0,98,0.00,,,0.00,meteohub,2013-04-15 15:56:00,
2013-04-15 09:01:00,40.6,40.1,29.89,WSW,257,4.0,4.0,98,0.00,,,0.00,meteohub,2013-04-15 16:01:00,
2013-04-15 09:06:00,40.8,40.3,29.89,South,184,3.0,5.0,98,0.00,,,0.00,meteohub,2013-04-15 16:06:00,
2013-04-15 09:11:00,41.2,40.5,29.89,South,184,2.0,5.0,97,0.00,,,0.00,meteohub,2013-04-15 16:11:00,
2013-04-15 09:16:00,41.5,40.8,29.88,South,184,3.0,5.0,97,0.00,,,0.00,meteohub,2013-04-15 16:16:00,
2013-04-15 09:21:00,42.1,41.0,29.89,South,184,2.0,4.0,96,0.00,,,0.00,meteohub,2013-04-15 16:21:00,
2013-04-15 09:26:00,42.4,41.2,29.89,South,183,2.0,5.0,95,0.00,,,0.00,meteohub,2013-04-15 16:26:00,
2013-04-15 09:32:00,43.2,41.5,29.89,WSW,248,3.0,5.0,94,0.00,,,0.00,meteohub,2013-04-15 16:32:00,
2013-04-15 09:37:00,43.5,41.7,29.89,West,269,3.0,7.0,93,0.00,,,0.00,meteohub,2013-04-15 16:37:00,
2013-04-15 09:42:00,44.1,41.4,29.89,West,259,6.0,7.0,90,0.00,,,0.00,meteohub,2013-04-15 16:42:00,
2013-04-15 09:47:00,44.2,40.6,29.89,West,266,5.0,7.0,87,0.00,,,0.00,meteohub,2013-04-15 16:47:00,
2013-04-15 09:52:00,44.4,40.3,29.90,West,266,5.0,7.0,85,0.00,,,0.00,meteohub,2013-04-15 16:52:00,
2013-04-15 09:57:00,44.8,39.6,29.90,West,264,5.0,7.0,82,0.00,,,0.00,meteohub,2013-04-15 16:57:00,
2013-04-15 10:02:00,45.0,39.6,29.90,WSW,252,3.0,7.0,81,0.00,,,0.00,meteohub,2013-04-15 17:02:00,
2013-04-15 10:07:00,45.3,39.2,29.90,NW,310,7.0,7.0,79,0.00,,,0.00,meteohub,2013-04-15 17:07:00,
2013-04-15 10:12:00,45.9,39.7,29.90,West,270,5.0,8.0,79,0.00,,,0.00,meteohub,2013-04-15 17:12:00,
2013-04-15 10:17:00,46.4,39.2,29.90,West,275,4.0,9.0,76,0.00,,,0.00,meteohub,2013-04-15 17:17:00,
2013-04-15 10:21:00,46.8,39.2,29.90,NW,309,4.0,9.0,75,0.00,,,0.00,meteohub,2013-04-15 17:21:00,
2013-04-15 10:22:00,46.9,39.7,29.90,West,280,5.0,9.0,76,0.00,,,0.00,meteohub,2013-04-15 17:22:00,
2013-04-15 10:24:00,47.1,39.2,29.90,WNW,284,4.0,9.0,74,0.00,,,0.00,meteohub,2013-04-15 17:24:00,
2013-04-15 10:30:00,47.5,39.9,29.90,WSW,258,4.0,9.0,75,0.00,,,0.00,meteohub,2013-04-15 17:30:00,
2013-04-15 10:35:00,47.7,39.0,29.90,SW,229,4.0,9.0,72,0.00,,,0.00,meteohub,2013-04-15 17:35:00,
2013-04-15 10:40:00,48.2,39.9,29.90,West,277,4.0,9.0,73,0.00,,,0.00,meteohub,2013-04-15 17:40:00,
2013-04-15 10:45:00,48.4,39.4,29.90,WSW,250,5.0,10.0,71,0.00,,,0.00,meteohub,2013-04-15 17:45:00,
2013-04-15 10:49:00,48.6,39.9,29.90,WSW,252,3.0,10.0,72,0.00,,,0.00,meteohub,2013-04-15 17:49:00,
2013-04-15 10:54:00,48.9,39.9,29.90,SSW,210,5.0,10.0,71,0.00,,,0.00,meteohub,2013-04-15 17:54:00,
2013-04-15 11:00:00,49.3,39.6,29.90,West,267,4.0,8.0,69,0.00,,,0.00,meteohub,2013-04-15 18:00:00,
2013-04-15 11:05:00,49.3,38.8,29.90,West,277,6.0,10.0,67,0.00,,,0.00,meteohub,2013-04-15 18:05:00,
2013-04-15 11:10:00,49.5,39.4,29.90,SW,229,4.0,10.0,68,0.00,,,0.00,meteohub,2013-04-15 18:10:00,
2013-04-15 11:15:00,49.3,39.6,29.90,WSW,251,6.0,10.0,69,0.00,,,0.00,meteohub,2013-04-15 18:15:00,
2013-04-15 11:20:00,48.9,39.2,29.91,SSW,196,5.0,9.0,69,0.00,,,0.00,meteohub,2013-04-15 18:20:00,
2013-04-15 11:25:00,48.9,38.1,29.91,NW,324,3.0,9.0,66,0.00,,,0.00,meteohub,2013-04-15 18:25:00,
2013-04-15 11:29:00,49.6,39.2,29.90,SSW,198,5.0,9.0,67,0.00,,,0.00,meteohub,2013-04-15 18:29:00,
2013-04-15 11:34:00,50.5,39.2,29.90,SW,235,8.0,10.0,65,0.00,,,0.00,meteohub,2013-04-15 18:34:00,
2013-04-15 11:39:00,51.3,39.9,29.91,West,259,5.0,10.0,65,0.00,,,0.00,meteohub,2013-04-15 18:39:00,
2013-04-15 11:44:00,51.4,37.6,29.90,SSW,202,5.0,10.0,59,0.00,,,0.00,meteohub,2013-04-15 18:44:00,
2013-04-15 11:49:00,51.4,37.6,29.90,NW,319,5.0,9.0,59,0.00,,,0.00,meteohub,2013-04-15 18:49:00,
2013-04-15 11:54:00,51.4,37.9,29.90,SSW,202,8.0,9.0,60,0.00,,,0.00,meteohub,2013-04-15 18:54:00,
2013-04-15 11:59:00,51.6,36.5,29.90,West,281,5.0,9.0,56,0.00,,,0.00,meteohub,2013-04-15 18:59:00,
2013-04-15 12:04:00,51.6,36.5,29.90,SSW,212,5.0,9.0,56,0.00,,,0.00,meteohub,2013-04-15 19:04:00,
2013-04-15 12:09:00,51.4,37.2,29.90,WSW,244,5.0,11.0,58,0.00,,,0.00,meteohub,2013-04-15 19:09:00,
2013-04-15 12:14:00,52.2,36.5,29.90,SW,229,4.0,14.0,55,0.00,,,0.00,meteohub,2013-04-15 19:14:00,
2013-04-15 12:19:00,52.0,34.9,29.89,WSW,246,3.0,14.0,52,0.00,,,0.00,meteohub,2013-04-15 19:19:00,
2013-04-15 12:24:00,52.0,35.8,29.89,SW,228,5.0,14.0,54,0.00,,,0.00,meteohub,2013-04-15 19:24:00,
2013-04-15 12:29:00,52.5,38.1,29.89,WNW,288,7.0,12.0,58,0.00,,,0.00,meteohub,2013-04-15 19:29:00,
2013-04-15 12:34:00,52.5,36.9,29.88,SW,227,4.0,12.0,55,0.00,,,0.00,meteohub,2013-04-15 19:34:00,
2013-04-15 12:39:00,53.1,37.8,29.88,SSW,210,8.0,12.0,56,0.00,,,0.00,meteohub,2013-04-15 19:39:00,
2013-04-15 12:44:00,53.1,37.4,29.88,SSW,213,7.0,11.0,55,0.00,,,0.00,meteohub,2013-04-15 19:44:00,
2013-04-15 12:50:00,53.4,37.2,29.88,WSW,257,8.0,11.0,54,0.00,,,0.00,meteohub,2013-04-15 19:50:00,
2013-04-15 12:55:00,54.0,36.7,29.88,WSW,253,6.0,12.0,52,0.00,,,0.00,meteohub,2013-04-15 19:55:00,
2013-04-15 12:57:00,54.1,36.0,29.88,WNW,283,6.0,15.0,50,0.00,,,0.00,meteohub,2013-04-15 19:57:00,
2013-04-15 13:01:00,54.1,36.0,29.88,West,277,6.0,19.0,50,0.00,,,0.00,meteohub,2013-04-15 20:01:00,
2013-04-15 13:02:00,54.1,36.0,29.89,SW,236,4.0,19.0,50,0.00,,,0.00,meteohub,2013-04-15 20:02:00,
2013-04-15 13:03:00,54.1,36.0,29.88,WSW,240,7.0,19.0,50,0.00,,,0.00,meteohub,2013-04-15 20:03:00,
2013-04-15 13:08:00,54.0,34.7,29.88,SW,232,7.0,19.0,48,0.00,,,0.00,meteohub,2013-04-15 20:08:00,
2013-04-15 13:13:00,53.8,36.1,29.88,West,272,6.0,19.0,51,0.00,,,0.00,meteohub,2013-04-15 20:13:00,
2013-04-15 13:18:00,53.8,35.6,29.88,WNW,284,4.0,15.0,50,0.00,,,0.00,meteohub,2013-04-15 20:18:00,
2013-04-15 13:23:00,53.8,35.6,29.88,WSW,245,13.0,19.0,50,0.00,,,0.00,meteohub,2013-04-15 20:23:00,
2013-04-15 13:28:00,54.0,34.7,29.88,West,278,6.0,19.0,48,0.00,,,0.00,meteohub,2013-04-15 20:28:00,
2013-04-15 13:33:00,54.0,34.2,29.88,South,181,11.0,21.0,47,0.00,,,0.00,meteohub,2013-04-15 20:33:00,
2013-04-15 13:38:00,53.8,34.5,29.87,SSW,209,12.0,21.0,48,0.00,,,0.00,meteohub,2013-04-15 20:38:00,
2013-04-15 13:43:00,54.3,34.5,29.87,SSW,203,6.0,21.0,47,0.00,,,0.00,meteohub,2013-04-15 20:43:00,
2013-04-15 13:48:00,54.1,34.3,29.87,WSW,250,6.0,17.0,47,0.00,,,0.00,meteohub,2013-04-15 20:48:00,
2013-04-15 13:53:00,54.9,35.6,29.87,WNW,292,13.0,18.0,48,0.00,,,0.00,meteohub,2013-04-15 20:53:00,
2013-04-15 13:58:00,55.0,36.1,29.87,WNW,289,8.0,18.0,49,0.00,,,0.00,meteohub,2013-04-15 20:58:00,
2013-04-15 14:03:00,55.0,35.2,29.87,WNW,286,9.0,18.0,47,0.00,,,0.00,meteohub,2013-04-15 21:03:00,
2013-04-15 14:08:00,54.9,34.0,29.87,WSW,250,5.0,17.0,45,0.00,,,0.00,meteohub,2013-04-15 21:08:00,
2013-04-15 14:13:00,54.1,34.9,29.87,West,271,7.0,16.0,48,0.00,,,0.00,meteohub,2013-04-15 21:13:00,
2013-04-15 14:18:00,54.0,33.6,29.87,WNW,284,11.0,19.0,46,0.00,,,0.00,meteohub,2013-04-15 21:18:00,
2013-04-15 14:23:00,54.0,34.2,29.86,SW,232,11.0,19.0,47,0.00,,,0.00,meteohub,2013-04-15 21:23:00,
2013-04-15 14:28:00,54.7,35.4,29.86,West,277,9.0,19.0,48,0.00,,,0.00,meteohub,2013-04-15 21:28:00,
2013-04-15 14:33:00,54.7,35.4,29.87,WSW,256,11.0,19.0,48,0.00,,,0.00,meteohub,2013-04-15 21:33:00,
2013-04-15 14:38:00,54.3,34.5,29.87,SSW,196,11.0,19.0,47,0.00,,,0.00,meteohub,2013-04-15 21:38:00,
2013-04-15 14:43:00,54.7,35.4,29.86,WSW,252,19.0,19.0,48,0.00,,,0.00,meteohub,2013-04-15 21:43:00,
2013-04-15 14:48:00,53.8,33.4,29.86,West,261,10.0,20.0,46,0.00,,,0.00,meteohub,2013-04-15 21:48:00,
2013-04-15 14:53:00,53.8,35.6,29.86,WSW,256,11.0,20.0,50,0.00,,,0.00,meteohub,2013-04-15 21:53:00,
2013-04-15 14:58:00,53.2,34.5,29.86,WSW,238,8.0,20.0,49,0.00,,,0.00,meteohub,2013-04-15 21:58:00,
2013-04-15 15:03:00,53.1,36.0,29.86,NW,305,10.0,20.0,52,0.00,,,0.00,meteohub,2013-04-15 22:03:00,
2013-04-15 15:08:00,53.4,35.8,29.86,SSW,204,9.0,20.0,51,0.00,,,0.00,meteohub,2013-04-15 22:08:00,
2013-04-15 15:13:00,53.2,35.6,29.86,WNW,300,9.0,22.0,51,0.00,,,0.00,meteohub,2013-04-15 22:13:00,
2013-04-15 15:18:00,53.6,36.0,29.86,SSW,204,10.0,22.0,51,0.00,,,0.00,meteohub,2013-04-15 22:18:00,
2013-04-15 15:24:00,53.6,35.4,29.86,WNW,302,14.0,22.0,50,0.00,,,0.00,meteohub,2013-04-15 22:24:00,
2013-04-15 15:29:00,53.2,35.1,29.86,SW,226,15.0,20.0,50,0.00,,,0.00,meteohub,2013-04-15 22:29:00,
2013-04-15 15:34:00,52.7,34.5,29.86,WSW,252,9.0,20.0,50,0.00,,,0.00,meteohub,2013-04-15 22:34:00,
2013-04-15 15:39:00,53.2,35.6,29.86,SW,229,10.0,19.0,51,0.00,,,0.00,meteohub,2013-04-15 22:39:00,
2013-04-15 15:44:00,52.9,35.2,29.86,West,263,13.0,19.0,51,0.00,,,0.00,meteohub,2013-04-15 22:44:00,
2013-04-15 15:49:00,52.3,34.2,29.86,West,263,15.0,19.0,50,0.00,,,0.00,meteohub,2013-04-15 22:49:00,
2013-04-15 15:54:00,52.0,34.9,29.86,West,271,13.0,19.0,52,0.00,,,0.00,meteohub,2013-04-15 22:54:00,
2013-04-15 15:59:00,52.0,34.3,29.86,West,270,8.0,16.0,51,0.00,,,0.00,meteohub,2013-04-15 22:59:00,
2013-04-15 16:04:00,51.6,35.1,29.85,SW,235,5.0,15.0,53,0.00,,,0.00,meteohub,2013-04-15 23:04:00,
2013-04-15 16:09:00,52.5,35.4,29.85,WNW,283,11.0,18.0,52,0.00,,,0.00,meteohub,2013-04-15 23:09:00,
2013-04-15 16:14:00,53.1,34.9,29.85,West,265,5.0,18.0,50,0.00,,,0.00,meteohub,2013-04-15 23:14:00,
2013-04-15 16:19:00,53.4,35.2,29.85,WSW,254,5.0,18.0,50,0.00,,,0.00,meteohub,2013-04-15 23:19:00,
2013-04-15 16:24:00,53.6,35.4,29.85,WSW,246,12.0,18.0,50,0.00,,,0.00,meteohub,2013-04-15 23:24:00,
2013-04-15 16:29:00,53.1,36.0,29.85,WSW,249,8.0,19.0,52,0.00,,,0.00,meteohub,2013-04-15 23:29:00,
2013-04-15 16:34:00,53.4,35.8,29.85,West,269,10.0,19.0,51,0.00,,,0.00,meteohub,2013-04-15 23:34:00,
2013-04-15 16:39:00,52.9,34.7,29.85,SW,229,15.0,19.0,50,0.00,,,0.00,meteohub,2013-04-15 23:39:00,
2013-04-15 16:44:00,52.0,34.3,29.85,WSW,256,12.0,21.0,51,0.00,,,0.00,meteohub,2013-04-15 23:44:00,
2013-04-15 16:49:00,51.6,35.1,29.86,WNW,284,5.0,21.0,53,0.00,,,0.00,meteohub,2013-04-15 23:49:00,
2013-04-15 16:54:00,51.3,35.2,29.86,West,268,8.0,21.0,54,0.00,,,0.00,meteohub,2013-04-15 23:54:00,
2013-04-15 16:59:00,51.6,35.1,29.86,West,261,11.0,16.0,53,0.00,,,0.00,meteohub,2013-04-15 23:59:00,
2013-04-15 17:04:00,51.8,35.2,29.85,WNW,287,14.0,17.0,53,0.00,,,0.00,meteohub,2013-04-16 00:04:00,
2013-04-15 17:09:00,51.4,34.3,29.85,SW,227,3.0,17.0,52,0.00,,,0.00,meteohub,2013-04-16 00:09:00,
2013-04-15 17:14:00,51.4,34.3,29.85,SW,234,9.0,17.0,52,0.00,,,0.00,meteohub,2013-04-16 00:14:00,
2013-04-15 17:19:00,51.3,34.2,29.85,WSW,257,5.0,19.0,52,0.00,,,0.00,meteohub,2013-04-16 00:19:00,
2013-04-15 17:24:00,51.4,34.3,29.85,WSW,242,5.0,19.0,52,0.00,,,0.00,meteohub,2013-04-16 00:24:00,
2013-04-15 17:29:00,51.8,34.2,29.85,West,280,12.0,19.0,51,0.00,,,0.00,meteohub,2013-04-16 00:29:00,
2013-04-15 17:34:00,52.0,34.3,29.86,NW,312,7.0,16.0,51,0.00,,,0.00,meteohub,2013-04-16 00:34:00,
2013-04-15 17:39:00,52.0,34.0,29.85,West,274,5.0,15.0,50,0.00,,,0.00,meteohub,2013-04-16 00:39:00,
2013-04-15 17:44:00,51.4,32.9,29.86,WSW,251,5.0,15.0,49,0.00,,,0.00,meteohub,2013-04-16 00:44:00,
2013-04-15 17:49:00,51.3,33.3,29.86,WNW,298,11.0,18.0,50,0.00,,,0.00,meteohub,2013-04-16 00:49:00,
2013-04-15 17:54:00,51.1,33.6,29.85,WNW,292,7.0,18.0,51,0.00,,,0.00,meteohub,2013-04-16 00:54:00,
2013-04-15 17:59:00,50.7,33.3,29.86,West,275,5.0,18.0,51,0.00,,,0.00,meteohub,2013-04-16 00:59:00,
2013-04-15 18:04:00,50.7,33.3,29.86,West,270,2.0,16.0,51,0.00,,,0.00,meteohub,2013-04-16 01:04:00,
2013-04-15 18:09:00,50.7,33.8,29.86,WSW,238,9.0,14.0,52,0.00,,,0.00,meteohub,2013-04-16 01:09:00,
2013-04-15 18:14:00,50.7,33.8,29.86,WNW,303,2.0,14.0,52,0.00,,,0.00,meteohub,2013-04-16 01:14:00,
2013-04-15 18:19:00,50.5,33.1,29.86,WNW,285,6.0,14.0,51,0.00,,,0.00,meteohub,2013-04-16 01:19:00,
2013-04-15 18:24:00,50.4,32.9,29.86,NW,304,4.0,13.0,51,0.00,,,0.00,meteohub,2013-04-16 01:24:00,
2013-04-15 18:29:00,50.4,33.4,29.86,NW,319,3.0,12.0,52,0.00,,,0.00,meteohub,2013-04-16 01:29:00,
2013-04-15 18:34:00,50.4,32.9,29.86,West,271,7.0,12.0,51,0.00,,,0.00,meteohub,2013-04-16 01:34:00,
2013-04-15 18:39:00,50.2,32.7,29.87,West,279,5.0,13.0,51,0.00,,,0.00,meteohub,2013-04-16 01:39:00,
2013-04-15 18:44:00,50.2,32.2,29.87,NNW,327,6.0,13.0,50,0.00,,,0.00,meteohub,2013-04-16 01:44:00,
2013-04-15 18:49:00,50.0,32.2,29.87,NW,311,6.0,13.0,50,0.00,,,0.00,meteohub,2013-04-16 01:49:00,
2013-04-15 18:54:00,49.8,32.0,29.87,West,267,5.0,12.0,50,0.00,,,0.00,meteohub,2013-04-16 01:54:00,
2013-04-15 18:59:00,49.8,32.0,29.87,NNW,340,4.0,11.0,50,0.00,,,0.00,meteohub,2013-04-16 01:59:00,
2013-04-15 19:04:00,49.6,32.2,29.87,East,83,13.0,13.0,51,0.00,,,0.00,meteohub,2013-04-16 02:04:00,
2013-04-15 19:09:00,49.5,32.5,29.87,WNW,300,5.0,13.0,52,0.00,,,0.00,meteohub,2013-04-16 02:09:00,
2013-04-15 19:14:00,49.3,32.9,29.88,NNW,345,4.0,13.0,53,0.00,,,0.00,meteohub,2013-04-16 02:14:00,
2013-04-15 19:19:00,49.3,32.9,29.88,NNW,339,0.0,13.0,53,0.00,,,0.00,meteohub,2013-04-16 02:19:00,
2013-04-15 19:24:00,48.9,32.0,29.87,NW,305,7.0,11.0,52,0.00,,,0.00,meteohub,2013-04-16 02:24:00,
2013-04-15 19:29:00,48.7,32.9,29.88,West,280,2.0,11.0,54,0.00,,,0.00,meteohub,2013-04-16 02:29:00,
2013-04-15 19:34:00,48.6,32.7,29.88,NW,310,4.0,12.0,54,0.00,,,0.00,meteohub,2013-04-16 02:34:00,
2013-04-15 19:39:00,48.0,31.6,29.88,NNW,346,2.0,12.0,53,0.00,,,0.00,meteohub,2013-04-16 02:39:00,
2013-04-15 19:44:00,47.7,31.8,29.88,WNW,303,2.0,12.0,54,0.00,,,0.00,meteohub,2013-04-16 02:44:00,
2013-04-15 19:49:00,47.5,31.6,29.88,NNW,347,5.0,9.0,54,0.00,,,0.00,meteohub,2013-04-16 02:49:00,
2013-04-15 19:54:00,47.1,31.3,29.88,WNW,302,6.0,8.0,54,0.00,,,0.00,meteohub,2013-04-16 02:54:00,
2013-04-15 19:59:00,46.9,31.1,29.89,NNW,340,3.0,9.0,54,0.00,,,0.00,meteohub,2013-04-16 02:59:00,
2013-04-15 20:04:00,46.8,31.5,29.89,North,5,3.0,10.0,55,0.00,,,0.00,meteohub,2013-04-16 03:04:00,
2013-04-15 20:09:00,46.6,31.3,29.89,North,9,4.0,11.0,55,0.00,,,0.00,meteohub,2013-04-16 03:09:00,
2013-04-15 20:14:00,46.4,31.6,29.89,WSW,243,3.0,11.0,56,0.00,,,0.00,meteohub,2013-04-16 03:14:00,
2013-04-15 20:19:00,46.2,30.9,29.90,NNE,13,4.0,11.0,55,0.00,,,0.00,meteohub,2013-04-16 03:19:00,
2013-04-15 20:24:00,46.0,30.7,29.90,North,355,7.0,8.0,55,0.00,,,0.00,meteohub,2013-04-16 03:24:00,
2013-04-15 20:29:00,46.0,30.7,29.90,NNW,338,3.0,11.0,55,0.00,,,0.00,meteohub,2013-04-16 03:29:00,
2013-04-15 20:34:00,45.9,30.6,29.90,NE,38,3.0,11.0,55,0.00,,,0.00,meteohub,2013-04-16 03:34:00,
2013-04-15 20:39:00,45.7,30.4,29.91,NE,41,3.0,11.0,55,0.00,,,0.00,meteohub,2013-04-16 03:39:00,
2013-04-15 20:44:00,45.7,30.9,29.91,NNE,28,5.0,9.0,56,0.00,,,0.00,meteohub,2013-04-16 03:44:00,
2013-04-15 20:49:00,45.5,30.7,29.91,North,5,3.0,10.0,56,0.00,,,0.00,meteohub,2013-04-16 03:49:00,
2013-04-15 20:54:00,45.5,30.2,29.91,North,350,4.0,10.0,55,0.00,,,0.00,meteohub,2013-04-16 03:54:00,
2013-04-15 20:59:00,45.3,30.0,29.91,NW,325,5.0,14.0,55,0.00,,,0.00,meteohub,2013-04-16 03:59:00,
2013-04-15 21:00:00,45.3,30.0,29.92,NNW,336,6.0,14.0,55,0.00,,,0.00,meteohub,2013-04-16 04:00:00,
2013-04-15 21:01:00,45.3,30.6,29.92,NNW,346,2.0,14.0,56,0.00,,,0.00,meteohub,2013-04-16 04:01:00,
2013-04-15 21:06:00,45.3,30.0,29.92,NNE,25,8.0,14.0,55,0.00,,,0.00,meteohub,2013-04-16 04:06:00,
2013-04-15 21:12:00,45.1,30.0,29.92,NNE,26,5.0,11.0,55,0.00,,,0.00,meteohub,2013-04-16 04:12:00,
2013-04-15 21:17:00,45.1,30.0,29.93,NNW,346,3.0,11.0,55,0.00,,,0.00,meteohub,2013-04-16 04:17:00,
2013-04-15 21:22:00,45.1,30.0,29.93,NE,46,2.0,11.0,55,0.00,,,0.00,meteohub,2013-04-16 04:22:00,
2013-04-15 21:27:00,45.0,29.8,29.93,North,5,2.0,9.0,55,0.00,,,0.00,meteohub,2013-04-16 04:27:00,
2013-04-15 21:32:00,44.8,30.0,29.93,NE,42,8.0,10.0,56,0.00,,,0.00,meteohub,2013-04-16 04:32:00,
2013-04-15 21:37:00,44.8,30.0,29.93,WNW,293,2.0,10.0,56,0.00,,,0.00,meteohub,2013-04-16 04:37:00,
2013-04-15 21:42:00,44.8,30.0,29.94,NE,42,5.0,11.0,56,0.00,,,0.00,meteohub,2013-04-16 04:42:00,
2013-04-15 21:47:00,44.6,29.8,29.94,North,0,4.0,11.0,56,0.00,,,0.00,meteohub,2013-04-16 04:47:00,
2013-04-15 21:52:00,44.6,29.8,29.94,NNW,338,5.0,14.0,56,0.00,,,0.00,meteohub,2013-04-16 04:52:00,
2013-04-15 21:57:00,44.4,29.7,29.94,NNE,30,9.0,14.0,56,0.00,,,0.00,meteohub,2013-04-16 04:57:00,
2013-04-15 22:02:00,44.4,29.7,29.94,NNE,28,4.0,14.0,56,0.00,,,0.00,meteohub,2013-04-16 05:02:00,
2013-04-15 22:07:00,44.4,29.7,29.95,NNE,18,10.0,11.0,56,0.00,,,0.00,meteohub,2013-04-16 05:07:00,
2013-04-15 22:12:00,44.2,29.5,29.95,NE,38,5.0,11.0,56,0.00,,,0.00,meteohub,2013-04-16 05:12:00,
2013-04-15 22:17:00,44.2,29.5,29.95,NNE,23,7.0,13.0,56,0.00,,,0.00,meteohub,2013-04-16 05:17:00,
2013-04-15 22:22:00,44.2,29.5,29.96,ENE,63,5.0,13.0,56,0.00,,,0.00,meteohub,2013-04-16 05:22:00,
2013-04-15 22:27:00,44.2,29.1,29.96,NE,46,5.0,13.0,55,0.00,,,0.00,meteohub,2013-04-16 05:27:00,
2013-04-15 22:32:00,44.2,29.1,29.96,NE,34,3.0,11.0,55,0.00,,,0.00,meteohub,2013-04-16 05:32:00,
2013-04-15 22:37:00,44.1,29.3,29.96,ENE,63,8.0,11.0,56,0.00,,,0.00,meteohub,2013-04-16 05:37:00,
2013-04-15 22:42:00,44.1,29.3,29.96,NNE,32,9.0,11.0,56,0.00,,,0.00,meteohub,2013-04-16 05:42:00,
2013-04-15 22:47:00,44.1,29.3,29.96,ENE,75,8.0,11.0,56,0.00,,,0.00,meteohub,2013-04-16 05:47:00,
2013-04-15 22:52:00,43.9,29.1,29.96,NE,39,6.0,11.0,56,0.00,,,0.00,meteohub,2013-04-16 05:52:00,
2013-04-15 22:57:00,43.7,29.1,29.96,NE,45,5.0,13.0,56,0.00,,,0.00,meteohub,2013-04-16 05:57:00,
2013-04-15 23:02:00,43.5,28.9,29.96,NNE,22,7.0,13.0,56,0.00,,,0.00,meteohub,2013-04-16 06:02:00,
2013-04-15 23:07:00,43.5,28.9,29.96,NE,42,9.0,13.0,56,0.00,,,0.00,meteohub,2013-04-16 06:07:00,
2013-04-15 23:12:00,43.5,29.3,29.96,NE,41,8.0,11.0,57,0.00,,,0.00,meteohub,2013-04-16 06:12:00,
2013-04-15 23:17:00,43.3,29.5,29.96,NE,40,7.0,11.0,58,0.00,,,0.00,meteohub,2013-04-16 06:17:00,
2013-04-15 23:22:00,43.2,29.3,29.96,NE,38,10.0,11.0,58,0.00,,,0.00,meteohub,2013-04-16 06:22:00,
2013-04-15 23:27:00,43.0,29.3,29.96,NNE,13,5.0,12.0,58,0.00,,,0.00,meteohub,2013-04-16 06:27:00,
2013-04-15 23:32:00,42.8,29.1,29.96,NNE,24,4.0,12.0,58,0.00,,,0.00,meteohub,2013-04-16 06:32:00,
2013-04-15 23:37:00,42.8,28.6,29.96,ENE,69,5.0,12.0,57,0.00,,,0.00,meteohub,2013-04-16 06:37:00,
2013-04-15 23:42:00,43.0,28.8,29.96,NE,52,4.0,11.0,57,0.00,,,0.00,meteohub,2013-04-16 06:42:00,
2013-04-15 23:47:00,43.0,28.8,29.96,ENE,78,5.0,12.0,57,0.00,,,0.00,meteohub,2013-04-16 06:47:00,
2013-04-15 23:52:00,43.2,28.6,29.96,NE,53,5.0,12.0,56,0.00,,,0.00,meteohub,2013-04-16 06:52:00,
2013-04-15 23:57:00,43.2,28.0,29.96,NE,47,6.0,12.0,55,0.00,,,0.00,meteohub,2013-04-16 06:57:00,